KBTV

Burlington International Airport

Burlington, Vermont, USA
METAR KBTV 201954Z VRB06KT 10SM FEW060 28/14 A3011 RMK AO2 SLP195 T02780139
Observed Flight Rules
Aug-20 @ 19:54 UTC (37 minutes ago) Visual Flight Rules
Wind Visibility Clouds
Variable at 6 knots 10 miles
  • Few at 6,000' AGL
Temperatures Readings
Current 28°C / 82°F
Dewpoint 14°C / 57°F
Humidity 42%
Altimeter 30.11" Hg
Pressure 1019.5 hPa
Elevation 105
METAR KBTV 201954Z VRB06KT 10SM FEW060 28/14 A3011 RMK AO2 SLP195 T02780139
Observed Flight Rules
Aug-20 @ 19:54 UTC
(37 minutes ago)
VFR
Wind Visibility
Variable at 6 knots 10 miles
Clouds
  • Few at 6,000' AGL
Temperature Dewpoint
28°C / 82°F 14°C / 57°F
Humidity Altimeter Pressure
42% 30.11" Hg 1019.5 hPa